Tiempo atmosférico en la estación meteorológica de Alcañices, Zamora (840 m.)



Fecha
DESCASC
Temp. máxima en grados centígrados (hora)
DESCASC
Temp. mínima en grados centígrados (hora)
DESCASC
Temp. media en grados centígrados
DESCASC
Racha de viento máxima en m/sg (hora)
DESCASC
Velocidad máxima media en intervalos de 10 minutos(hora)
DESCASC
Precipitaciones diarias en mm
DESCASC
Precipitaciones de 00:00 a 06:00 en mm
DESCASC
Precipitaciones de 06:00 a 12:00 en mm
DESCASC
Precipitaciones de 12:00 a 18:00 en mm
DESCASC
Precipitaciones de 18:00 a 24:00 en mm
DESCASC
23-06-2019 24.5 (17:00) 11.5 (07:00) 18 10.83 (12:10) 7.5 (12:10) 0 0 0 0 0
22-06-2019 28.4 (17:40) 9.4 (06:30) 18.9 11.67 (18:10) 7.22 (18:10) 0 0 0 0 0
21-06-2019 26.4 (18:50) 7.8 (07:00) 17.1 8.33 (00:20) 5.83 (00:10) 0.2 0.2 0 0 0
20-06-2019 23.7 (15:00) 9.9 (00:00) 16.8 11.11 (23:20) 7.22 (19:50) 0 0 0 0 0
19-06-2019 20.6 (19:10) 12.9 (00:00) 16.8 9.17 (03:30) 6.67 (17:40) -- 0 0.6 -- 0
18-06-2019 21.3 (16:50) 12.2 (00:00) 16.7 17.5 (15:40) 12.5 (15:20) 0.2 0 0 0 0.2
17-06-2019 24.8 (14:10) 9 (00:00) 16.9 11.11 (14:10) 6.67 (12:00) 0 0 0 0 0
16-06-2019 25.9 (18:10) 6.6 (00:00) 16.2 7.78 (15:20) 5.28 (09:00) 0 0 0 0 0
15-06-2019 20.8 (18:50) 4.8 (00:00) 12.8 9.17 (16:40) 5.28 (16:40) 0 0 0 0 0
14-06-2019 18.1 (14:10) 3.2 (00:00) 10.7 14.17 (16:20) 8.33 (18:10) 0 0 0 0 0
13-06-2019 19.4 (18:50) 4.7 (00:00) 12 11.11 (15:30) 6.67 (15:50) 0 0 0 0 0
12-06-2019 19.2 (18:40) 2.3 (00:00) 10.8 8.89 (17:40) 5.28 (17:40) 0 0 0 0 0
11-06-2019 19.8 (19:40) 7.1 (00:00) 13.4 10.56 (14:50) 5.83 (13:00) 0 0 0 0 0
10-06-2019 21 (17:20) 4.6 (00:00) 12.8 10.83 (19:50) 6.67 (20:10) 0 0 0 0 0
09-06-2019 19.7 (16:40) 6.9 (00:00) 13.3 11.67 (18:30) 7.22 (18:50) 0 0 0 0 0
08-06-2019 21.2 (17:10) 3.4 (00:00) 12.3 7.5 (15:40) 4.72 (09:20) 0 0 0 0 0
07-06-2019 15.9 (18:00) 5.1 (00:00) 10.5 12.5 (03:20) 8.33 (02:50) 1.8 1.8 0 0 0
06-06-2019 18.5 (15:30) 2.6 (00:00) 10.5 16.39 (17:00) 11.11 (17:00) 6.4 0 0 0 6.4
05-06-2019 15.9 (17:00) 4.3 (00:00) 10.1 12.22 (17:10) 8.06 (16:40) 0 0 0 0 0
04-06-2019 17.2 (18:10) 9.5 (00:00) 13.4 11.39 (14:30) 8.33 (13:40) 0 0 0 0 0
03-06-2019 25.8 (16:10) 13.1 (00:00) 19.4 12.22 (17:30) 7.22 (17:00) 0 0 0 0 0
02-06-2019 28.1 (18:00) 13 (00:00) 20.6 10.28 (18:00) 6.39 (16:20) 0 0 0 0 0
01-06-2019 31 (18:20) 13.1 (00:00) 22.1 10.28 (18:20) 5.28 (15:10) 0 0 0 0 0
31-05-2019 31.8 (20:10) 13.1 (00:00) 22.4 7.78 (06:20) 6.11 (06:20) 0 0 0 0 0
30-05-2019 28.6 (19:10) 8.1 (00:00) 18.4 8.33 (17:30) 4.72 (10:40) 0 0 0 0 0
29-05-2019 24.1 (18:40) 4.4 (00:00) 14.3 12.22 (14:30) 6.67 (01:50) 0 0 0 0 0
28-05-2019 25.5 (17:40) 5.6 (00:00) 15.5 11.39 (21:00) 8.33 (21:00) 0 0 0 0 0

Gráficas

Temp. máximas Temp. mínimas Temp. medias Precipitaciones Rachas de viento máximas Velocidades máximas media en intervalos de 10 minutos

Datos horarios

Fecha y hora oficial Temperatura (ºC) Velocidad del viento (km/h) Dirección del viento Racha (km/h) Dirección de racha Precipitación (mm) Presión (hPa) Tendencia (hPa) Humedad (%)
2019-06-26 23:00:00 20.2 3 Sudoeste 14 Sudoeste 0 -- -- 58
2019-06-26 22:00:00 22.9 6 Sudoeste 15 Sudoeste 0 -- -- 51
2019-06-26 21:00:00 25.6 12 Sudoeste 28 Sudoeste 0 -- -- 44
2019-06-26 20:00:00 26.7 15 Sudoeste 30 Sur 0 -- -- 40
2019-06-26 19:00:00 27 17 Sudoeste 35 Sur 0 -- -- 39
2019-06-26 18:00:00 26.9 18 Sur 40 Sur 0 -- -- 41
2019-06-26 17:00:00 26.8 21 Sudoeste 45 Sur 0 -- -- 39
2019-06-26 16:00:00 25.6 20 Sur 40 Sur 0 -- -- 44
2019-06-26 15:00:00 25.4 21 Sur 43 Sur 0 -- -- 49
2019-06-26 14:00:00 24.7 22 Sudoeste 37 Sur 0 -- -- 54
2019-06-26 13:00:00 23.9 23 Sur 37 Sur 0 -- -- 57
2019-06-26 12:00:00 22.3 22 Sur 36 Sur 0 -- -- 60
2019-06-26 11:00:00 22.5 22 Sur 37 Sudoeste 0 -- -- 63
2019-06-26 10:00:00 21.2 21 Sur 29 Sur 0 -- -- 68
2019-06-26 09:00:00 19.6 14 Sudeste 22 Sudeste 0 -- -- 80
2019-06-26 08:00:00 16.7 12 Este 18 Este 0 -- -- 90
2019-06-26 07:00:00 13.8 13 Nordeste 14 Nordeste 0 -- -- 95
2019-06-26 06:00:00 14.9 7 Sudeste 10 Sudeste 0 -- -- 92
2019-06-26 05:00:00 13.3 6 Sur 9 Sur 0 -- -- 96
2019-06-26 04:00:00 13.5 4 Oeste 12 Nordeste 0 -- -- 95
2019-06-26 03:00:00 15 10 Nordeste 13 Nordeste 0 -- -- 90
2019-06-26 02:00:00 15.5 10 Nordeste 12 Nordeste 0 -- -- 87
2019-06-26 01:00:00 15.2 9 Norte 12 Norte 0 -- -- 90
2019-06-26 00:00:00 15.5 5 Norte 12 Norte 0 -- -- 88
2019-06-25 23:00:00 15.9 10 Norte 13 Norte -- -- -- 86
2019-06-25 22:00:00 17.8 6 Noroeste 12 Noroeste 0 -- -- 78
2019-06-25 21:00:00 19.8 8 Norte 21 Noroeste 0 -- -- 72
2019-06-25 20:00:00 23 9 Noroeste 18 Noroeste 0 -- -- 59
2019-06-25 19:00:00 24.5 8 Noroeste 15 Noroeste 0 -- -- 56
2019-06-25 18:00:00 22.8 10 Noroeste 22 Sudoeste 0 -- -- 58
2019-06-25 17:00:00 21.8 18 Sudoeste 23 Oeste 0 -- -- 61
2019-06-25 16:00:00 21.8 8 Oeste 15 Sudoeste 0 -- -- 63
2019-06-25 15:00:00 19.2 5 Oeste 18 Sudoeste 0 -- -- 70
2019-06-25 14:00:00 17.2 9 Sudoeste 17 Sur 0 -- -- 79
2019-06-25 13:00:00 18 8 Sudeste 18 Sudeste 0 -- -- 78
2019-06-25 12:00:00 17.4 10 Este 21 Sudeste 0 -- -- 87
2019-06-25 11:00:00 15 12 Este 19 Este 0 -- -- 95
2019-06-25 10:00:00 14.3 9 Nordeste 14 Nordeste 0 -- -- 99
2019-06-25 09:00:00 12.8 6 Nordeste 13 Nordeste 0.4 -- -- 100
2019-06-25 08:00:00 12 9 Nordeste 16 Nordeste 0 -- -- 100
2019-06-25 07:00:00 11.7 8 Nordeste 11 Nordeste 0 -- -- 100
2019-06-25 06:00:00 11.6 8 Nordeste 11 Nordeste 0 -- -- 100
2019-06-25 05:00:00 11.4 4 Nordeste 7 Nordeste 0 -- -- 100
2019-06-25 04:00:00 11.2 4 Norte 8 Noroeste 0 -- -- 100
2019-06-25 03:00:00 11.1 4 Noroeste 7 Noroeste 0 -- -- 100
2019-06-25 02:00:00 11 2 Noroeste 5 Sudoeste 0 -- -- 100
2019-06-25 01:00:00 11 4 Sudoeste 6 Sur 0 -- -- 100
2019-06-25 00:00:00 11.2 3 Sudeste 12 Noroeste 0 -- -- 100
2019-06-24 23:00:00 11.1 5 Noroeste 9 Noroeste 0 -- -- 100
2019-06-24 22:00:00 10.9 0 Calma 9 Sur 0 -- -- 100
2019-06-24 21:00:00 11.7 6 Sur 22 Sudoeste 0 -- -- 100
2019-06-24 20:00:00 11.6 7 Sudeste 22 Sudoeste 0.4 -- -- 100
2019-06-24 19:00:00 12.1 6 Sudoeste 22 Sudoeste 2.2 -- -- 100
2019-06-24 18:00:00 12.5 9 Sudeste 17 Sudoeste 3 -- -- 100
2019-06-24 17:00:00 12.7 10 Sudoeste 15 Sudoeste 3.4 -- -- 99
2019-06-24 16:00:00 13.1 10 Sudoeste 15 Sudoeste 2.4 -- -- 99
2019-06-24 15:00:00 13.4 11 Sudoeste 14 Sudoeste 2 -- -- 97
2019-06-24 14:00:00 13.6 5 Sudeste 14 Sudoeste 3.4 -- -- 95
2019-06-24 13:00:00 14 8 Sur 27 Sur 0.6 -- -- 94
2019-06-24 12:00:00 16.4 13 Sudoeste 22 Sudoeste 0 -- -- 82
2019-06-24 11:00:00 16.3 9 Sur 18 Sur 0 -- -- 94
2019-06-24 10:00:00 16 10 Sudeste 16 Sudeste 0.8 -- -- 99
2019-06-24 09:00:00 15.6 3 Sudeste 15 Oeste 6.4 -- -- 100
2019-06-24 08:00:00 15.4 7 Noroeste 16 Oeste 4.4 -- -- 100
2019-06-24 07:00:00 15.4 4 Este 8 Este 0.4 -- -- 100
2019-06-24 06:00:00 15.3 5 Este 8 Este 0.4 -- -- 100
2019-06-24 05:00:00 15.4 3 Sudeste 6 Sudeste 0.4 -- -- 100
2019-06-24 04:00:00 15.3 6 Sudeste 8 Sudeste 1 -- -- 99
2019-06-24 03:00:00 15.8 4 Oeste 9 Sudoeste 0.4 -- -- 97
2019-06-24 02:00:00 16.1 4 Oeste 9 Sudoeste 0 -- -- 94
2019-06-24 01:00:00 16.1 3 Oeste 9 Oeste 0 -- -- 95
2019-06-24 00:00:00 16.2 5 Oeste 10 Noroeste 0 -- -- 94
2019-06-23 23:00:00 16.5 7 Noroeste 13 Noroeste 0 -- -- 94
2019-06-23 22:00:00 17.2 8 Oeste 19 Oeste 0 -- -- 91
2019-06-23 21:00:00 18.1 11 Oeste 25 Noroeste 0 -- -- 85
2019-06-23 20:00:00 19.7 17 Noroeste 24 Oeste 0 -- -- 76
2019-06-23 19:00:00 22.4 14 Oeste 26 Sudoeste 0 -- -- 63
2019-06-23 18:00:00 22.7 18 Sudoeste 36 Sudoeste 0 -- -- 56
2019-06-23 17:00:00 24.5 21 Sudoeste 34 Sudoeste 0 -- -- 51
2019-06-23 16:00:00 22.7 18 Sudoeste 30 Sudoeste 0 -- -- 57
2019-06-23 15:00:00 21.6 19 Sudoeste 32 Sur 0 -- -- 58
2019-06-23 14:00:00 21.9 17 Sudoeste 33 Sur 0 -- -- 52
2019-06-23 13:00:00 21.8 19 Sudoeste 39 Sur 0 -- -- 54
2019-06-23 12:00:00 22.2 26 Sur 35 Sur 0 -- -- 46
2019-06-23 11:00:00 21.8 18 Sur 27 Sur 0 -- -- 44
2019-06-23 10:00:00 19.6 10 Sudeste 18 Sudeste 0 -- -- 49
2019-06-23 09:00:00 15.6 7 Este 13 Este 0 -- -- 59
2019-06-23 08:00:00 12.8 4 Este 8 Nordeste 0 -- -- 70
2019-06-23 07:00:00 11.5 5 Nordeste 6 Este 0 -- -- 71
2019-06-23 06:00:00 12.5 2 Oeste 7 Oeste 0 -- -- 63
2019-06-23 05:00:00 13 6 Oeste 27 Oeste 0 -- -- 61
2019-06-23 04:00:00 15 15 Sudoeste 23 Sudoeste 0 -- -- 55
2019-06-23 03:00:00 15.4 10 Sudoeste 17 Oeste 0 -- -- 55
2019-06-23 02:00:00 15.6 3 Sudoeste 8 Oeste 0 -- -- 54
2019-06-23 01:00:00 16.3 3 Noroeste 13 Oeste 0 -- -- 57
2019-06-23 00:00:00 18.1 9 Oeste 19 Oeste 0 -- -- 53
2019-06-22 23:00:00 19.5 11 Oeste 17 Oeste 0 -- -- 46
2019-06-22 22:00:00 21.6 12 Oeste 22 Oeste 0 -- -- 35
2019-06-22 21:00:00 24.3 10 Oeste 33 Sudoeste 0 -- -- 33
2019-06-22 20:00:00 26.3 19 Sur 31 Sudoeste 0 -- -- 21
2019-06-22 19:00:00 27.5 19 Sudoeste 42 Sudoeste 0 -- -- 22
2019-06-22 18:00:00 28 24 Sur 41 Sur 0 -- -- 24
2019-06-22 17:00:00 27.8 21 Sudoeste 41 Sur 0 -- -- 25
2019-06-22 16:00:00 27.9 22 Sur 41 Sur 0 -- -- 28
2019-06-22 15:00:00 26.9 17 Sur 41 Sudeste 0 -- -- 32
2019-06-22 14:00:00 25 14 Sur 27 Sur 0 -- -- 38
2019-06-22 13:00:00 22.9 13 Sur 27 Nordeste 0 -- -- 43
2019-06-22 12:00:00 21.6 14 Este 24 Este 0 -- -- 49
2019-06-22 11:00:00 18.2 14 Este 26 Nordeste 0 -- -- 59
2019-06-22 10:00:00 16.7 19 Este 26 Nordeste 0 -- -- 63
2019-06-22 09:00:00 14.2 17 Nordeste 24 Nordeste 0 -- -- 75
2019-06-22 08:00:00 12 14 Nordeste 21 Nordeste 0 -- -- 84
2019-06-22 07:00:00 9.9 13 Nordeste 17 Nordeste 0 -- -- 91
2019-06-22 06:00:00 9.8 11 Nordeste 19 Nordeste 0 -- -- 89
2019-06-22 05:00:00 10.3 15 Nordeste 22 Nordeste 0 -- -- 86
2019-06-22 04:00:00 10.9 19 Nordeste 23 Nordeste 0 -- -- 83
2019-06-22 03:00:00 11.6 18 Nordeste 21 Nordeste 0 -- -- 77
2019-06-22 02:00:00 12.5 18 Nordeste 20 Nordeste 0 -- -- 69
2019-06-22 01:00:00 13.2 13 Nordeste 17 Nordeste 0 -- -- 65
2019-06-22 00:00:00 15.6 3 Sudeste 6 Sudeste 0 -- -- 55
2019-06-21 23:00:00 16.6 8 Sudeste 12 Sudeste 0 -- -- 53
2019-06-21 22:00:00 19.6 3 Sur 11 Sudoeste 0 -- -- 41
2019-06-21 21:00:00 22.9 9 Sur 14 Sudoeste 0 -- -- 35
2019-06-21 20:00:00 23.9 9 Sur 21 Sudoeste 0 -- -- 33
2019-06-21 19:00:00 26.2 6 Sudoeste 23 Oeste 0 -- -- 30
2019-06-21 18:00:00 25 6 Sur 15 Sudoeste 0 -- -- 34
2019-06-21 17:00:00 22.6 4 Nordeste 20 Este 0 -- -- 39
2019-06-21 16:00:00 23 7 Nordeste 20 Sur 0 -- -- 40
2019-06-21 15:00:00 21.9 9 Sudeste 17 Nordeste 0 -- -- 45
2019-06-21 14:00:00 21.8 4 Sur 12 Oeste 0 -- -- 44
2019-06-21 13:00:00 19.8 3 Sudoeste 14 Este 0 -- -- 48
2019-06-21 12:00:00 18.4 5 Norte 14 Este 0 -- -- 55
2019-06-21 11:00:00 17.1 6 Sudeste 19 Este 0 -- -- 62
2019-06-21 10:00:00 16.3 12 Este 20 Este 0 -- -- 72
2019-06-21 09:00:00 14 11 Nordeste 15 Nordeste 0 -- -- 81
2019-06-21 08:00:00 12.6 5 Norte 9 Norte 0 -- -- 90
2019-06-21 07:00:00 7.8 7 Noroeste 9 Norte 0 -- -- 99
2019-06-21 06:00:00 8.8 7 Norte 12 Norte 0 -- -- 99
2019-06-21 05:00:00 10.1 10 Norte 13 Norte 0 -- -- 98
2019-06-21 04:00:00 9.9 6 Norte 8 Norte 0 -- -- 98
2019-06-21 03:00:00 11.5 6 Nordeste 12 Este 0 -- -- 95
2019-06-21 02:00:00 11.5 8 Nordeste 21 Nordeste 0 -- -- 96
2019-06-21 01:00:00 12.1 15 Nordeste 30 Nordeste 0.2 -- -- 93
2019-06-21 00:00:00 13.3 24 Nordeste 40 Nordeste 0 -- -- 84
2019-06-20 23:00:00 14.9 23 Nordeste 36 Nordeste 0 -- -- 70
2019-06-20 22:00:00 16.9 24 Nordeste 36 Nordeste 0 -- -- 63
2019-06-20 21:00:00 19.2 14 Oeste 37 Oeste 0 -- -- 57
2019-06-20 20:00:00 20.4 20 Oeste 39 Noroeste 0 -- -- 54
2019-06-20 19:00:00 23.1 18 Sudoeste 34 Sudoeste 0 -- -- 42
2019-06-20 18:00:00 23.1 17 Oeste 30 Oeste 0 -- -- 45
2019-06-20 17:00:00 23.5 15 Oeste 32 Oeste 0 -- -- 43
2019-06-20 16:00:00 22.8 15 Oeste 24 Oeste 0 -- -- 47
2019-06-20 15:00:00 23.7 6 Oeste 17 Sudoeste 0 -- -- 48
2019-06-20 14:00:00 21.2 6 Nordeste 15 Este 0 -- -- 54
2019-06-20 13:00:00 19.6 4 Sur 10 Sudeste 0 -- -- 60
2019-06-20 12:00:00 17.7 4 Este 13 Nordeste 0 -- -- 65
2019-06-20 11:00:00 17.2 7 Nordeste 19 Nordeste 0 -- -- 68
2019-06-20 10:00:00 15.7 12 Nordeste 19 Este 0 -- -- 75
2019-06-20 09:00:00 13 8 Nordeste 12 Este 0 -- -- 85
2019-06-20 08:00:00 11.5 7 Nordeste 10 Nordeste 0 -- -- 93
2019-06-20 07:00:00 10.3 3 Nordeste 14 Nordeste 0 -- -- 95
2019-06-20 06:00:00 10 4 Nordeste 9 Sudeste 0 -- -- 93
2019-06-20 05:00:00 11.1 0 Calma 6 Sudoeste 0 -- -- 91
2019-06-20 04:00:00 11.3 5 Sudoeste 8 Sudoeste 0 -- -- 89
2019-06-20 03:00:00 10.5 6 Noroeste 12 Oeste 0 -- -- 91
2019-06-20 02:00:00 11 8 Noroeste 14 Oeste 0 -- -- 89
2019-06-20 01:00:00 13 10 Oeste 14 Oeste 0 -- -- 80
2019-06-20 00:00:00 13.5 9 Oeste 15 Oeste 0 -- -- 75
2019-06-19 23:00:00 13.7 7 Noroeste 11 Oeste 0 -- -- 75
2019-06-19 22:00:00 16 6 Noroeste 19 Oeste 0 -- -- 66
2019-06-19 21:00:00 19.1 15 Oeste 28 Noroeste 0 -- -- 56
2019-06-19 20:00:00 20.6 15 Oeste 32 Oeste 0 -- -- 53
2019-06-19 19:00:00 20.4 18 Oeste 33 Oeste 0 -- -- 54
2019-06-19 18:00:00 19.3 23 Sudoeste 32 Oeste 0 -- -- 58
2019-06-19 17:00:00 19.4 22 Sudoeste 31 Sudoeste 0 -- -- 62
2019-06-19 16:00:00 18.4 17 Sudoeste 25 Sudoeste 0 -- -- 71
2019-06-19 15:00:00 16.6 10 Sudoeste -- -- -- -- -- 86
2019-06-19 14:00:00 15.8 15 Sudoeste 24 Oeste 0.8 -- -- 90
2019-06-19 13:00:00 14.1 15 Sudoeste 24 Sudoeste 0 -- -- 95
2019-06-19 12:00:00 15.1 15 Oeste 26 Sur 0.2 -- -- 90
2019-06-19 11:00:00 15.5 16 Sudoeste 25 Sudoeste 0 -- -- 88
2019-06-19 10:00:00 14.2 15 Sudoeste 27 Sudoeste 0 -- -- 95
2019-06-19 09:00:00 13.2 18 Sudoeste 26 Sudoeste 0.2 -- -- 99
2019-06-19 08:00:00 13 13 Sudoeste 21 Sudoeste 0.2 -- -- 100
2019-06-19 07:00:00 13.1 14 Sudoeste 25 Sudoeste 0 -- -- 97
2019-06-19 06:00:00 13.2 15 Sudoeste 26 Sudoeste 0 -- -- 97
2019-06-19 05:00:00 13.2 15 Sudoeste 24 Sudoeste 0 -- -- 97
2019-06-19 04:00:00 13.3 15 Sudoeste 33 Sudoeste 0 -- -- 97
2019-06-19 03:00:00 14 18 Sudoeste 27 Sudoeste 0 -- -- 90
2019-06-19 02:00:00 13.9 17 Sudoeste 31 Sudoeste 0 -- -- 91
2019-06-19 01:00:00 14.2 15 Sudoeste 21 Sudoeste 0 -- -- 92
2019-06-19 00:00:00 13.9 10 Sudoeste 19 Sudoeste 0.2 -- -- 96
2019-06-18 23:00:00 14.1 13 Sudoeste 30 Sudoeste 0 -- -- 94
2019-06-18 22:00:00 15.4 19 Sudoeste 32 Sudoeste 0 -- -- 84
2019-06-18 21:00:00 16.1 21 Sudoeste 36 Sudoeste 0 -- -- 81
2019-06-18 20:00:00 15.6 24 Sudoeste 37 Sudoeste 0 -- -- 82
2019-06-18 19:00:00 15.2 28 Sudoeste 46 Sudoeste 0 -- -- 86
2019-06-18 18:00:00 19.4 28 Sudoeste 49 Sudoeste 0 -- -- 55
2019-06-18 17:00:00 20.3 31 Sur 61 Sur 0 -- -- 50
2019-06-18 16:00:00 20.8 33 Sur 63 Sur 0 -- -- 51
2019-06-18 15:00:00 19 28 Sudoeste 44 Sudoeste 0 -- -- 63
2019-06-18 14:00:00 18 21 Sur 46 Sudoeste 0 -- -- 72
2019-06-18 13:00:00 19.6 20 Sudoeste 46 Sudoeste 0 -- -- 48
2019-06-18 12:00:00 20.6 26 Sudoeste 43 Sur 0 -- -- 42
2019-06-18 11:00:00 18.6 21 Sur 32 Sur 0 -- -- 42
2019-06-18 10:00:00 17.1 18 Sudoeste 37 Sudoeste 0 -- -- 33
2019-06-18 09:00:00 15.4 24 Sur 33 Sur 0 -- -- 42
2019-06-18 08:00:00 14.1 23 Sur 34 Sur 0 -- -- 54
2019-06-18 07:00:00 12.8 14 Sur 19 Sur 0 -- -- 60
2019-06-18 06:00:00 12.7 12 Sur 19 Sur 0 -- -- 59
2019-06-18 05:00:00 12.6 10 Sur 17 Sudeste 0 -- -- 58
2019-06-18 04:00:00 13.3 10 Sudeste 14 Sudeste 0 -- -- 54
2019-06-18 03:00:00 13.3 4 Sudeste 12 Este 0 -- -- 55
2019-06-18 02:00:00 13.7 10 Este 12 Nordeste 0 -- -- 56
2019-06-18 01:00:00 13 9 Nordeste 17 Nordeste 0 -- -- 64
2019-06-18 00:00:00 14.1 15 Nordeste 18 Nordeste 0 -- -- 63
2019-06-17 23:00:00 15.5 7 Noroeste 17 Oeste 0 -- -- 58
2019-06-17 22:00:00 17.3 14 Sudoeste 36 Sudoeste 0 -- -- 48
2019-06-17 21:00:00 18.3 9 Oeste 19 Oeste 0 -- -- 41
2019-06-17 20:00:00 19.4 8 Oeste 18 Oeste 0 -- -- 40
2019-06-17 19:00:00 21.1 12 Oeste 25 Oeste 0 -- -- 36
2019-06-17 18:00:00 22.4 14 Oeste 29 Sudoeste 0 -- -- 29
2019-06-17 17:00:00 23.1 16 Sudoeste 28 Sudoeste 0 -- -- 31
2019-06-17 16:00:00 22.9 17 Sudoeste 32 Sudoeste 0 -- -- 30
2019-06-17 15:00:00 24.2 19 Oeste 40 Sudoeste 0 -- -- 27
2019-06-17 14:00:00 24.5 21 Sudoeste 39 Sudoeste 0 -- -- 26
2019-06-17 13:00:00 24 22 Sudoeste 40 Sur 0 -- -- 26
2019-06-17 12:00:00 22.8 24 Sur 35 Sur 0 -- -- 27
2019-06-17 11:00:00 21.2 20 Sur 31 Sur 0 -- -- 40
2019-06-17 10:00:00 20.2 13 Sur 23 Sur 0 -- -- 48
2019-06-17 09:00:00 17.6 4 Sudeste 7 Sudeste 0 -- -- 66
2019-06-17 08:00:00 14.3 0 Calma 4 Oeste 0 -- -- 77
2019-06-17 07:00:00 10.4 0 Calma 8 Nordeste 0 -- -- 90
2019-06-17 06:00:00 12.2 8 Sudoeste 9 Sudoeste 0 -- -- 84
2019-06-17 05:00:00 12.1 6 Sudoeste 14 Sudoeste 0 -- -- 83
2019-06-17 04:00:00 12.9 13 Sudoeste 15 Sudoeste 0 -- -- 77
2019-06-17 03:00:00 14.2 12 Sudoeste 14 Sudoeste 0 -- -- 65
2019-06-17 02:00:00 15.3 6 Oeste 7 Oeste 0 -- -- 58
2019-06-17 01:00:00 16.2 6 Oeste 13 Oeste 0 -- -- 45
2019-06-17 00:00:00 17.8 13 Oeste -- -- 0 -- -- 41
2019-06-16 23:00:00 17.4 2 Noroeste 8 Noroeste 0 -- -- 41
2019-06-16 22:00:00 20.1 4 Noroeste 14 Noroeste 0 -- -- 36
2019-06-16 21:00:00 23.2 10 Oeste 23 Oeste 0 -- -- 28
2019-06-16 20:00:00 24.3 13 Oeste 25 Noroeste 0 -- -- 25
2019-06-16 19:00:00 25.3 10 Oeste 27 Sudoeste 0 -- -- 24
2019-06-16 18:00:00 25.4 9 Sudoeste 27 Sudoeste 0 -- -- 26
2019-06-16 17:00:00 24.7 11 Sudoeste 27 Sudoeste 0 -- -- 25
2019-06-16 16:00:00 24.9 15 Sur 28 Sur 0 -- -- 25
2019-06-16 15:00:00 24.4 12 Sur 28 Sudoeste 0 -- -- 28
2019-06-16 14:00:00 23.3 9 Sur 25 Sur 0 -- -- 30
2019-06-16 13:00:00 22 14 Sur 27 Sudeste 0 -- -- 34
2019-06-16 12:00:00 21 12 Este 23 Este 0 -- -- 41
2019-06-16 11:00:00 19 13 Nordeste 23 Nordeste 0 -- -- 51
2019-06-16 10:00:00 15.7 13 Nordeste 23 Este 0 -- -- 61
2019-06-16 09:00:00 12.3 19 Nordeste 25 Nordeste 0 -- -- 74
2019-06-16 08:00:00 9.2 15 Nordeste 20 Nordeste 0 -- -- 83
2019-06-16 07:00:00 6.7 16 Nordeste 18 Nordeste 0 -- -- 90
2019-06-16 06:00:00 7.2 15 Nordeste 17 Nordeste 0 -- -- 86
2019-06-16 05:00:00 7 14 Nordeste 23 Nordeste 0 -- -- 87
2019-06-16 04:00:00 8.1 13 Nordeste 18 Este 0 -- -- 86
2019-06-16 03:00:00 9.9 5 Norte 6 Noroeste 0 -- -- 78
2019-06-16 02:00:00 10.2 6 Noroeste 10 Oeste 0 -- -- 75
2019-06-16 01:00:00 11 6 Noroeste 9 Noroeste 0 -- -- 70
2019-06-16 00:00:00 12.8 7 Oeste 10 Oeste 0 -- -- 61
2019-06-15 23:00:00 14.7 5 Oeste 8 Oeste 0 -- -- 53
2019-06-15 22:00:00 16.6 6 Oeste 15 Oeste 0 -- -- 46
2019-06-15 21:00:00 19.6 9 Oeste 27 Sudoeste 0 -- -- 38
2019-06-15 20:00:00 20.3 11 Oeste 29 Sudoeste 0 -- -- 35
2019-06-15 19:00:00 20.7 15 Oeste 28 Sudoeste 0 -- -- 35
2019-06-15 18:00:00 20.5 14 Sudoeste 33 Sudoeste 0 -- -- 35
2019-06-15 17:00:00 20 14 Sudoeste 33 Sudoeste 0 -- -- 34
2019-06-15 16:00:00 19.6 14 Sudoeste 26 Oeste 0 -- -- 38
2019-06-15 15:00:00 19 12 Sudoeste 25 Sudoeste 0 -- -- 41
2019-06-15 14:00:00 17.9 11 Sudoeste 24 Sudoeste 0 -- -- 43
2019-06-15 13:00:00 17.1 11 Sudoeste 21 Oeste 0 -- -- 42
2019-06-15 12:00:00 16 9 Sudoeste 18 Oeste 0 -- -- 50
2019-06-15 11:00:00 14.3 9 Oeste 22 Oeste 0 -- -- 58
2019-06-15 10:00:00 12.4 15 Oeste 25 Noroeste 0 -- -- 68
2019-06-15 09:00:00 9.4 8 Oeste 16 Sudoeste 0 -- -- 85
2019-06-15 08:00:00 7.2 9 Sudoeste 12 Sudoeste 0 -- -- 92
2019-06-15 07:00:00 5.2 6 Sudoeste 15 Oeste 0 -- -- 98
2019-06-15 06:00:00 5 7 Oeste 17 Sudoeste 0 -- -- 96
2019-06-15 05:00:00 5.8 12 Sudoeste 18 Sudoeste 0 -- -- 94
2019-06-15 04:00:00 5.8 11 Sudoeste 15 Sur 0 -- -- 92
2019-06-15 03:00:00 6.5 12 Sudoeste 13 Sudoeste 0 -- -- 88
2019-06-15 02:00:00 7.2 7 Sudoeste 14 Sudoeste 0 -- -- 84
2019-06-15 01:00:00 8.1 9 Oeste 18 Sudoeste 0 -- -- 79
2019-06-15 00:00:00 9.7 12 Oeste 18 Oeste 0 -- -- 72
2019-06-14 23:00:00 10.8 12 Oeste 26 Oeste 0 -- -- 67
2019-06-14 22:00:00 12.6 18 Oeste 44 Sudoeste 0 -- -- 61
2019-06-14 21:00:00 13.6 20 Oeste 42 Oeste 0 -- -- 57
2019-06-14 20:00:00 16.1 24 Oeste 43 Oeste 0 -- -- 49
2019-06-14 19:00:00 16.3 26 Sudoeste 44 Oeste 0 -- -- 38
2019-06-14 18:00:00 17.3 26 Sudoeste 43 Oeste 0 -- -- 38
2019-06-14 17:00:00 17.1 23 Oeste 51 Sudoeste 0 -- -- 42
2019-06-14 16:00:00 17.5 27 Sudoeste 44 Sudoeste 0 -- -- 41
2019-06-14 15:00:00 17.9 22 Sudoeste 37 Sudoeste 0 -- -- 40
2019-06-14 14:00:00 17.3 17 Sudoeste 35 Sudoeste 0 -- -- 44
2019-06-14 13:00:00 17 14 Sur 26 Sur 0 -- -- 46
2019-06-14 12:00:00 15.7 10 Oeste 18 Oeste 0 -- -- 53
2019-06-14 11:00:00 16.5 5 Noroeste 12 Noroeste 0 -- -- 53
2019-06-14 10:00:00 14 3 Sur 10 Nordeste 0 -- -- 65
2019-06-14 09:00:00 11.6 8 Nordeste 11 Nordeste 0 -- -- 74
2019-06-14 08:00:00 7.2 5 Norte 6 Norte 0 -- -- 79
2019-06-14 07:00:00 3.3 5 Noroeste 8 Este 0 -- -- 90
2019-06-14 06:00:00 4.9 4 Nordeste 8 Este 0 -- -- 84
2019-06-14 05:00:00 5.9 8 Este 11 Nordeste 0 -- -- 79
2019-06-14 04:00:00 5.8 2 Sudeste 5 Sudoeste 0 -- -- 79
2019-06-14 03:00:00 8.2 0 Calma 10 Nordeste 0 -- -- 69
2019-06-14 02:00:00 7.4 5 Este 13 Nordeste 0 -- -- 73
2019-06-14 01:00:00 9.6 4 Oeste 7 Oeste 0 -- -- 64
2019-06-14 00:00:00 10.2 5 Noroeste 9 Noroeste 0 -- -- 62
2019-06-13 23:00:00 11.6 5 Oeste 10 Noroeste 0 -- -- 57
2019-06-13 22:00:00 13.8 8 Noroeste 24 Noroeste 0 -- -- 50
2019-06-13 21:00:00 17.3 15 Noroeste 35 Noroeste 0 -- -- 40
2019-06-13 20:00:00 18.9 18 Oeste 36 Oeste 0 -- -- 35
2019-06-13 19:00:00 19.3 21 Oeste 37 Sudoeste 0 -- -- 32
2019-06-13 18:00:00 19.2 18 Sudoeste 39 Oeste 0 -- -- 34
2019-06-13 17:00:00 18.9 20 Oeste 37 Oeste 0 -- -- 35
2019-06-13 16:00:00 18.5 18 Sudoeste 40 Sudoeste 0 -- -- 37
2019-06-13 15:00:00 17.7 19 Oeste 36 Oeste 0 -- -- 39
2019-06-13 14:00:00 17.4 17 Sudoeste 36 Sudoeste 0 -- -- 40
2019-06-13 13:00:00 16.5 16 Sur 27 Sur 0 -- -- 45
2019-06-13 12:00:00 15 10 Sudoeste 23 Oeste 0 -- -- 52
2019-06-13 11:00:00 15.1 6 Sudoeste 15 Sudoeste 0 -- -- 53
2019-06-13 10:00:00 13.4 4 Sudoeste 8 Oeste 0 -- -- 61
2019-06-13 09:00:00 12.4 2 Sudeste 7 Este 0 -- -- 62
2019-06-13 08:00:00 9 3 Este 8 Nordeste 0 -- -- 71
2019-06-13 07:00:00 5.1 3 Nordeste 4 Nordeste 0 -- -- 83
2019-06-13 06:00:00 5.1 4 Norte 5 Nordeste 0 -- -- 81
2019-06-13 05:00:00 5.6 0 Calma 13 Nordeste 0 -- -- 77
2019-06-13 04:00:00 5.5 10 Nordeste 19 Nordeste 0 -- -- 79
2019-06-13 03:00:00 7.5 6 Oeste 11 Oeste 0 -- -- 71
2019-06-13 02:00:00 8 5 Oeste 9 Oeste 0 -- -- 69
2019-06-13 01:00:00 7.7 4 Noroeste 9 Oeste 0 -- -- 69
2019-06-13 00:00:00 8.8 7 Noroeste 11 Noroeste 0 -- -- 63
2019-06-12 23:00:00 10.1 8 Noroeste 11 Noroeste 0 -- -- 57
2019-06-12 22:00:00 13.3 6 Noroeste 20 Oeste 0 -- -- 45
2019-06-12 21:00:00 17.1 12 Oeste 25 Sudoeste 0 -- -- 31
2019-06-12 20:00:00 17.9 16 Oeste 30 Sudoeste 0 -- -- 31
2019-06-12 19:00:00 19.2 12 Sudoeste 30 Sudoeste 0 -- -- 28
2019-06-12 18:00:00 19 11 Oeste 32 Sudoeste 0 -- -- 28
2019-06-12 17:00:00 18.5 17 Sudoeste 31 Sudoeste 0 -- -- 24
2019-06-12 16:00:00 17.6 14 Sudoeste 30 Sudoeste 0 -- -- 28
2019-06-12 15:00:00 17.1 14 Sudoeste 27 Sur 0 -- -- 37
2019-06-12 14:00:00 15.8 8 Sudoeste 29 Oeste 0 -- -- 36
2019-06-12 13:00:00 14.6 12 Sudoeste 25 Sur 0 -- -- 42
2019-06-12 12:00:00 12.3 10 Sudoeste 22 Sudoeste 0 -- -- 51
2019-06-12 11:00:00 12.5 6 Sudoeste 15 Sur 0 -- -- 49
2019-06-12 10:00:00 11.1 8 Sur 16 Sur 0 -- -- 60
2019-06-12 09:00:00 9.2 6 Sudoeste 10 Sudoeste 0 -- -- 65
2019-06-12 08:00:00 8.8 0 Calma 5 Sur 0 -- -- 65
2019-06-12 07:00:00 4 5 Sudoeste 9 Sur 0 -- -- 80
2019-06-12 06:00:00 3.2 5 Oeste 6 Noroeste 0 -- -- 83
2019-06-12 05:00:00 3.2 5 Oeste 7 Oeste 0 -- -- 83
2019-06-12 04:00:00 2.9 4 Noroeste 8 Noroeste 0 -- -- 84
2019-06-12 03:00:00 3.5 0 Calma 10 Este 0 -- -- 82
2019-06-12 02:00:00 5.3 6 Sudeste 16 Este 0 -- -- 73
2019-06-12 01:00:00 6.2 11 Este 14 Este 0 -- -- 71
2019-06-12 00:00:00 8 9 Nordeste 15 Nordeste 0 -- -- 64
2019-06-11 23:00:00 8.7 12 Nordeste 16 Nordeste 0 -- -- 61
2019-06-11 22:00:00 12.6 16 Norte 26 Nordeste 0 -- -- 45
2019-06-11 21:00:00 15.7 18 Nordeste 26 Nordeste 0 -- -- 39
2019-06-11 20:00:00 18.7 15 Norte 26 Norte 0 -- -- 30
2019-06-11 19:00:00 19.7 10 Noroeste 27 Norte 0 -- -- 27
2019-06-11 18:00:00 19.5 13 Noroeste 31 Norte 0 -- -- 28
2019-06-11 17:00:00 19.3 15 Noroeste 31 Norte 0 -- -- 31
2019-06-11 16:00:00 18.1 18 Norte 32 Noroeste 0 -- -- 29
2019-06-11 15:00:00 18.2 18 Norte 38 Norte 0 -- -- 32
2019-06-11 14:00:00 16.7 18 Norte 34 Nordeste 0 -- -- 32
2019-06-11 13:00:00 16 21 Norte 36 Norte 0 -- -- 36
2019-06-11 12:00:00 13.9 15 Norte 29 Noroeste 0 -- -- 44
2019-06-11 11:00:00 14.8 17 Noroeste 27 Norte 0 -- -- 46
2019-06-11 10:00:00 13.8 10 Noroeste 21 Noroeste 0 -- -- 50
2019-06-11 09:00:00 11.8 7 Norte 17 Norte 0 -- -- 59
2019-06-11 08:00:00 9.3 6 Nordeste 10 Nordeste 0 -- -- 73
2019-06-11 07:00:00 8.1 4 Este 7 Nordeste 0 -- -- 87
2019-06-11 06:00:00 8.1 3 Norte 9 Oeste 0 -- -- 82
2019-06-11 05:00:00 8.8 6 Oeste 12 Oeste 0 -- -- 79
2019-06-11 04:00:00 9 8 Oeste 12 Oeste 0 -- -- 77
2019-06-11 03:00:00 9.7 3 Oeste 18 Noroeste 0 -- -- 73
2019-06-11 02:00:00 11.1 11 Noroeste 23 Noroeste 0 -- -- 67
2019-06-11 01:00:00 11.5 11 Noroeste 24 Noroeste 0 -- -- 64
2019-06-11 00:00:00 12.7 15 Sudoeste 25 Oeste 0 -- -- 59
2019-06-10 23:00:00 13.8 11 Noroeste 24 Oeste 0 -- -- 53
2019-06-10 22:00:00 14.9 17 Oeste 32 Oeste 0 -- -- 51
2019-06-10 21:00:00 16.6 19 Oeste 36 Oeste 0 -- -- 44
2019-06-10 20:00:00 19 23 Oeste 39 Oeste 0 -- -- 39
2019-06-10 19:00:00 20.1 20 Oeste 34 Oeste 0 -- -- 40
2019-06-10 18:00:00 20.4 17 Oeste 32 Oeste 0 -- -- 34
2019-06-10 17:00:00 20.9 15 Noroeste 36 Oeste 0 -- -- 33
2019-06-10 16:00:00 19.8 14 Oeste 32 Oeste 0 -- -- 36
2019-06-10 15:00:00 17.9 15 Oeste 29 Sudoeste 0 -- -- 42
2019-06-10 14:00:00 17.8 9 Oeste 21 Sur 0 -- -- 44
2019-06-10 13:00:00 16.4 9 Sudoeste 23 Sur 0 -- -- 47
2019-06-10 12:00:00 15.7 7 Sur 15 Sur 0 -- -- 53
2019-06-10 11:00:00 14.1 6 Nordeste 14 Este 0 -- -- 62
2019-06-10 10:00:00 12.6 6 Este 15 Este 0 -- -- 71
2019-06-10 09:00:00 10.4 10 Este 13 Este 0 -- -- 85
2019-06-10 08:00:00 6.1 8 Nordeste 13 Este 0 -- -- 100
2019-06-10 07:00:00 4.8 5 Nordeste 7 Nordeste 0 -- -- 100
2019-06-10 06:00:00 4.9 5 Norte 11 Este 0 -- -- 98
2019-06-10 05:00:00 6.2 11 Nordeste 12 Nordeste 0 -- -- 97
2019-06-10 04:00:00 6.9 10 Este 14 Este 0 -- -- 93
2019-06-10 03:00:00 7.9 11 Este 12 Este 0 -- -- 83
2019-06-10 02:00:00 8.1 6 Nordeste 13 Nordeste 0 -- -- 78
2019-06-10 01:00:00 8.4 12 Este 19 Nordeste 0 -- -- 79
2019-06-10 00:00:00 9.4 5 Oeste 14 Oeste 0 -- -- 72
2019-06-09 23:00:00 11.3 5 Noroeste 15 Oeste 0 -- -- 66
2019-06-09 22:00:00 14.2 10 Oeste 32 Oeste 0 -- -- 56
2019-06-09 21:00:00 16.9 19 Oeste 37 Oeste 0 -- -- 48
2019-06-09 20:00:00 18.2 21 Oeste 40 Oeste 0 -- -- 45
2019-06-09 19:00:00 17.7 26 Oeste 42 Oeste 0 -- -- 42
2019-06-09 18:00:00 18.2 22 Oeste 40 Sudoeste 0 -- -- 43
2019-06-09 17:00:00 19.3 22 Oeste 37 Oeste 0 -- -- 39
2019-06-09 16:00:00 19.3 14 Oeste 39 Sudoeste 0 -- -- 40
2019-06-09 15:00:00 19 15 Oeste 36 Sudoeste 0 -- -- 40
2019-06-09 14:00:00 17.9 18 Oeste 38 Sudoeste 0 -- -- 40
2019-06-09 13:00:00 16.9 18 Sudoeste 31 Sudoeste 0 -- -- 47
2019-06-09 12:00:00 15.8 15 Sudoeste 27 Sudoeste 0 -- -- 47
2019-06-09 11:00:00 14.6 12 Sudoeste 21 Oeste 0 -- -- 56
2019-06-09 10:00:00 13.4 9 Oeste 17 Sudoeste 0 -- -- 64
2019-06-09 09:00:00 11.4 8 Sudoeste 13 Oeste 0 -- -- 74
2019-06-09 08:00:00 9.7 4 Sudoeste 8 Oeste 0 -- -- 82
2019-06-09 07:00:00 7.6 5 Noroeste 7 Sudoeste 0 -- -- 88
2019-06-09 06:00:00 7.4 3 Oeste 8 Este 0 -- -- 87
2019-06-09 05:00:00 9.4 8 Sudoeste 10 Este 0 -- -- 80
2019-06-09 04:00:00 9.5 6 Este 12 Nordeste 0 -- -- 81
2019-06-09 03:00:00 11.1 7 Oeste 10 Oeste 0 -- -- 71
2019-06-09 02:00:00 11.6 0 Calma 4 Oeste 0 -- -- 73
2019-06-09 01:00:00 12.2 4 Noroeste 10 Noroeste 0 -- -- 69
2019-06-09 00:00:00 12.8 8 Noroeste 15 Noroeste 0 -- -- 65
2019-06-08 23:00:00 14.9 10 Oeste 19 Oeste 0 -- -- 53
2019-06-08 22:00:00 15.5 10 Oeste 19 Oeste 0 -- -- 48
2019-06-08 21:00:00 17 10 Oeste 24 Noroeste 0 -- -- 47
2019-06-08 20:00:00 19.2 13 Oeste 21 Oeste 0 -- -- 36
2019-06-08 19:00:00 19.4 14 Oeste 23 Noroeste 0 -- -- 35
2019-06-08 18:00:00 20.1 11 Oeste 26 Sur 0 -- -- 32
2019-06-08 17:00:00 21 12 Sur 25 Sur 0 -- -- 28
2019-06-08 16:00:00 20.5 10 Sudoeste 27 Sudoeste 0 -- -- 32
2019-06-08 15:00:00 19.1 12 Sur 22 Sur 0 -- -- 34
2019-06-08 14:00:00 18.8 6 Nordeste 26 Este 0 -- -- 38
2019-06-08 13:00:00 16.9 13 Nordeste 24 Este 0 -- -- 44
2019-06-08 12:00:00 15.9 13 Este 25 Nordeste 0 -- -- 47
2019-06-08 11:00:00 13.8 17 Este 25 Este 0 -- -- 52
2019-06-08 10:00:00 11.3 16 Nordeste 23 Este 0 -- -- 64
2019-06-08 09:00:00 8.8 16 Nordeste 21 Nordeste 0 -- -- 75
2019-06-08 08:00:00 6.4 12 Nordeste 18 Nordeste 0 -- -- 84
2019-06-08 07:00:00 3.7 14 Nordeste 16 Nordeste 0 -- -- 91
2019-06-08 06:00:00 3.7 12 Nordeste 13 Nordeste 0 -- -- 91
2019-06-08 05:00:00 3.4 9 Nordeste 12 Este 0 -- -- 91
2019-06-08 04:00:00 5.1 10 Este 13 Este 0 -- -- 86
2019-06-08 03:00:00 4.6 12 Nordeste 13 Nordeste 0 -- -- 87
2019-06-08 02:00:00 4.6 10 Nordeste 14 Norte 0 -- -- 87
2019-06-08 01:00:00 6.6 0 Calma 9 Oeste 0 -- -- 85
2019-06-08 00:00:00 6.9 8 Noroeste 12 Noroeste 0 -- -- 84
2019-06-07 23:00:00 8.4 3 Noroeste 15 Oeste 0 -- -- 76
2019-06-07 22:00:00 10.6 9 Oeste 17 Oeste 0 -- -- 65
2019-06-07 21:00:00 13.4 14 Oeste 28 Sudoeste 0 -- -- 53
2019-06-07 20:00:00 14.2 20 Oeste 34 Oeste 0 -- -- 50
2019-06-07 19:00:00 15.4 15 Oeste 30 Oeste 0 -- -- 43
2019-06-07 18:00:00 15.9 17 Oeste 34 Oeste 0 -- -- 43
2019-06-07 17:00:00 14.5 18 Noroeste 33 Noroeste 0 -- -- 57
2019-06-07 16:00:00 14.6 14 Oeste 35 Sudoeste 0 -- -- 47
2019-06-07 15:00:00 13.7 19 Oeste 34 Oeste 0 -- -- 47
2019-06-07 14:00:00 11.7 22 Oeste 36 Oeste 0 -- -- 61
2019-06-07 13:00:00 10.9 21 Sudoeste 36 Sudoeste 0 -- -- 62
2019-06-07 12:00:00 11 19 Oeste 39 Oeste 0 -- -- 65
2019-06-07 11:00:00 10.4 23 Oeste 33 Oeste 0 -- -- 68
2019-06-07 10:00:00 7.5 18 Oeste 37 Oeste 0 -- -- 82
2019-06-07 09:00:00 6.4 21 Sudoeste 32 Sudoeste 0 -- -- 94
2019-06-07 08:00:00 5.7 19 Oeste 32 Sudoeste 0 -- -- 96
2019-06-07 07:00:00 5.1 17 Sudoeste 28 Sudoeste 0 -- -- 100
2019-06-07 06:00:00 5.3 20 Sudoeste 36 Oeste 0 -- -- 99
2019-06-07 05:00:00 6 22 Sudoeste 36 Sudoeste 0.6 -- -- 98
2019-06-07 04:00:00 6.4 22 Sudoeste 45 Sudoeste 1.2 -- -- 98
2019-06-07 03:00:00 6.8 28 Sudoeste 42 Sudoeste 0 -- -- 95
2019-06-07 02:00:00 6.6 22 Sudoeste 34 Sudoeste 0 -- -- 97
2019-06-07 01:00:00 6.5 15 Sudoeste 30 Sudoeste 0 -- -- 98
2019-06-07 00:00:00 7.5 23 Oeste 37 Sudoeste 0 -- -- 95
2019-06-06 23:00:00 7.6 21 Sudoeste 44 Oeste 0 -- -- 94
2019-06-06 22:00:00 8.2 26 Sudoeste 49 Oeste 1.2 -- -- 92
2019-06-06 21:00:00 9.6 28 Oeste 51 Sudoeste 3.6 -- -- 95
2019-06-06 20:00:00 10.6 26 Sudoeste 55 Sudoeste 1.4 -- -- 93
2019-06-06 19:00:00 11.8 23 Sudoeste 55 Sudoeste 0.2 -- -- 84
2019-06-06 18:00:00 13.8 32 Sudoeste 58 Sudoeste 0 -- -- 67
2019-06-06 17:00:00 15.2 40 Sur 59 Sudoeste 0 -- -- 55
2019-06-06 16:00:00 16.3 36 Sudoeste 59 Sudoeste 0 -- -- 46
2019-06-06 15:00:00 17.5 34 Sur 56 Sudoeste 0 -- -- 41
2019-06-06 14:00:00 16.2 28 Sudoeste 49 Sur 0 -- -- 42
2019-06-06 13:00:00 14.1 26 Sur 39 Sur 0 -- -- 49
2019-06-06 12:00:00 12.8 21 Sudoeste 33 Sudoeste 0 -- -- 54
2019-06-06 11:00:00 12 17 Sur 26 Sur 0 -- -- 58
2019-06-06 10:00:00 9.9 14 Sur 21 Sur 0 -- -- 69
2019-06-06 09:00:00 8.6 8 Sur 13 Sur 0 -- -- 76
2019-06-06 08:00:00 6.9 2 Sudoeste 9 Sur 0 -- -- 85
2019-06-06 07:00:00 2.8 7 Sudeste 8 Sudeste 0 -- -- 96
2019-06-06 06:00:00 2.8 5 Sudoeste 9 Sudoeste 0 -- -- 92
2019-06-06 05:00:00 3.3 3 Sudoeste 11 Sudoeste 0 -- -- 90
2019-06-06 04:00:00 4.9 9 Sudoeste 10 Oeste 0 -- -- 85
2019-06-06 03:00:00 5.1 5 Sudoeste 15 Oeste 0 -- -- 86
2019-06-06 02:00:00 5.2 9 Sudoeste 14 Sudoeste 0 -- -- 81
2019-06-06 01:00:00 6.1 0 Calma 22 Oeste 0 -- -- 77
2019-06-06 00:00:00 8.4 12 Oeste 27 Oeste 0 -- -- 68
2019-06-05 23:00:00 9.4 18 Oeste 30 Oeste 0 -- -- 59
2019-06-05 22:00:00 10.9 18 Oeste 31 Oeste 0 -- -- 51
2019-06-05 21:00:00 12.3 14 Oeste 35 Oeste 0 -- -- 50
2019-06-05 20:00:00 13.1 23 Oeste 38 Oeste 0 -- -- 47
2019-06-05 19:00:00 13.7 21 Oeste 36 Oeste 0 -- -- 50
2019-06-05 18:00:00 14.4 23 Oeste 44 Oeste 0 -- -- 46
2019-06-05 17:00:00 15.9 22 Oeste 43 Sudoeste 0 -- -- 37
2019-06-05 16:00:00 14.8 20 Oeste 40 Oeste 0 -- -- 42
2019-06-05 15:00:00 15.6 23 Oeste 40 Oeste 0 -- -- 44
2019-06-05 14:00:00 14.6 25 Oeste 42 Sudoeste 0 -- -- 45
2019-06-05 13:00:00 13.7 15 Oeste 43 Oeste 0 -- -- 49
2019-06-05 12:00:00 11.8 23 Oeste 41 Oeste 0 -- -- 57
2019-06-05 11:00:00 12.7 23 Oeste 41 Oeste 0 -- -- 61
2019-06-05 10:00:00 11.5 18 Oeste 39 Oeste 0 -- -- 64
2019-06-05 09:00:00 8.8 22 Oeste 36 Oeste 0 -- -- 79
2019-06-05 08:00:00 6.3 13 Sudoeste 19 Sudoeste 0 -- -- 92
2019-06-05 07:00:00 4.7 13 Sudoeste 20 Oeste 0 -- -- 96
2019-06-05 06:00:00 4.7 13 Sudoeste 21 Sudoeste 0 -- -- 96
2019-06-05 05:00:00 4.6 13 Sudoeste 18 Sudoeste 0 -- -- 95
2019-06-05 04:00:00 5.2 12 Sudoeste 18 Oeste 0 -- -- 92
2019-06-05 03:00:00 6.2 8 Sudoeste 23 Oeste 0 -- -- 87
2019-06-05 02:00:00 8 15 Oeste 28 Oeste 0 -- -- 81
2019-06-05 01:00:00 8.4 13 Oeste 24 Oeste 0 -- -- 78
2019-06-05 00:00:00 9.5 15 Oeste 32 Noroeste 0 -- -- 72
2019-06-04 23:00:00 11.2 21 Oeste 33 Oeste 0 -- -- 64
2019-06-04 22:00:00 12.9 16 Oeste 31 Noroeste 0 -- -- 57
2019-06-04 21:00:00 14.6 16 Oeste 26 Oeste 0 -- -- 55
2019-06-04 20:00:00 15.8 16 Oeste 35 Sudoeste 0 -- -- 57
2019-06-04 19:00:00 16.7 19 Oeste 39 Oeste 0 -- -- 54
2019-06-04 18:00:00 16.8 23 Sudoeste 38 Sudoeste 0 -- -- 54
2019-06-04 17:00:00 15.9 20 Oeste 36 Oeste 0 -- -- 67
2019-06-04 16:00:00 14.4 17 Oeste 40 Oeste 0 -- -- 78
2019-06-04 15:00:00 15.3 24 Sudoeste 41 Sudoeste 0 -- -- 73
2019-06-04 14:00:00 15.2 24 Sudoeste 40 Sudoeste 0 -- -- 76
2019-06-04 13:00:00 15.8 23 Sudoeste 37 Sudoeste 0 -- -- 68
2019-06-04 12:00:00 15.4 23 Sudoeste 34 Oeste 0 -- -- 70
2019-06-04 11:00:00 14.7 23 Sudoeste 35 Sudoeste 0 -- -- 71
2019-06-04 10:00:00 13.1 21 Sudoeste 30 Sudoeste 0 -- -- 81
2019-06-04 09:00:00 11.8 18 Sudoeste 29 Oeste 0 -- -- 84
2019-06-04 08:00:00 10.8 19 Sudoeste 26 Sudoeste 0 -- -- 85
2019-06-04 07:00:00 10.3 17 Sudoeste 31 Oeste 0 -- -- 87
2019-06-04 06:00:00 10.8 22 Oeste 32 Sudoeste 0 -- -- 88
2019-06-04 05:00:00 10.9 18 Sudoeste 28 Sudoeste 0 -- -- 91
2019-06-04 04:00:00 11.5 19 Sudoeste 31 Sudoeste 0 -- -- 90
2019-06-04 03:00:00 11.4 15 Sudoeste 28 Sudoeste 0 -- -- 90
2019-06-04 02:00:00 12.8 23 Oeste 31 Oeste 0 -- -- 83
2019-06-04 01:00:00 13.4 15 Sudoeste 26 Sudoeste 0 -- -- 80
2019-06-04 00:00:00 14.9 12 Oeste 22 Oeste 0 -- -- 76
2019-06-03 23:00:00 16.3 8 Oeste 30 Oeste 0 -- -- 71
2019-06-03 22:00:00 18.7 21 Oeste 32 Sudoeste 0 -- -- 63
2019-06-03 21:00:00 21.4 17 Oeste 34 Oeste 0 -- -- 57
2019-06-03 20:00:00 23.2 21 Oeste 40 Sudoeste 0 -- -- 52
2019-06-03 19:00:00 25.1 22 Oeste 41 Sudoeste 0 -- -- 46
2019-06-03 18:00:00 25 21 Sudoeste 44 Sudoeste 0 -- -- 41
2019-06-03 17:00:00 24.6 26 Oeste 40 Oeste 0 -- -- 42
2019-06-03 16:00:00 25.5 24 Sur 42 Sur 0 -- -- 39
2019-06-03 15:00:00 24 15 Sudoeste 33 Oeste 0 -- -- 45
2019-06-03 14:00:00 22.7 18 Oeste 31 Sudoeste 0 -- -- 49
2019-06-03 13:00:00 21.6 19 Oeste 29 Sudoeste 0 -- -- 52
2019-06-03 12:00:00 21.5 16 Oeste 24 Sudoeste 0 -- -- 48
2019-06-03 11:00:00 20.1 14 Sudoeste 22 Sudoeste 0 -- -- 46
2019-06-03 10:00:00 18 13 Sudoeste 19 Sudoeste 0 -- -- 48
2019-06-03 09:00:00 15.7 11 Sudoeste 15 Sudoeste 0 -- -- 48
2019-06-03 08:00:00 14.2 6 Sudoeste 17 Sudoeste 0 -- -- 52
2019-06-03 07:00:00 13.1 10 Sudoeste 13 Sudoeste 0 -- -- 55
2019-06-03 06:00:00 13.7 9 Sudoeste 14 Sudoeste 0 -- -- 55
2019-06-03 05:00:00 13.9 9 Sudoeste 15 Sudoeste 0 -- -- 58
2019-06-03 04:00:00 14.3 9 Sudoeste 13 Oeste 0 -- -- 58
2019-06-03 03:00:00 15.2 8 Sudoeste 18 Sudoeste 0 -- -- 55
2019-06-03 02:00:00 16.8 13 Oeste 17 Oeste 0 -- -- 50
2019-06-03 01:00:00 17.4 13 Sudoeste 18 Sudoeste 0 -- -- 48
2019-06-03 00:00:00 18.2 12 Sudoeste 16 Oeste 0 -- -- 44
2019-06-02 23:00:00 18.4 9 Sudoeste 18 Oeste 0 -- -- 38
2019-06-02 22:00:00 21.3 12 Oeste 22 Oeste 0 -- -- 32
2019-06-02 21:00:00 23.8 14 Oeste 27 Oeste 0 -- -- 30
2019-06-02 20:00:00 24.6 13 Oeste 27 Oeste 0 -- -- 29
2019-06-02 19:00:00 25.9 17 Oeste 32 Oeste 0 -- -- 27
2019-06-02 18:00:00 28.1 22 Oeste 37 Oeste 0 -- -- 22
2019-06-02 17:00:00 26.9 19 Sudoeste 33 Oeste 0 -- -- 23
2019-06-02 16:00:00 26.9 19 Sudoeste 36 Sudoeste 0 -- -- 21
2019-06-02 15:00:00 26.8 18 Oeste 31 Sudoeste 0 -- -- 21
2019-06-02 14:00:00 27 20 Oeste 36 Sudoeste 0 -- -- 22
2019-06-02 13:00:00 26.2 11 Oeste 24 Sudoeste 0 -- -- 27
2019-06-02 12:00:00 24.2 14 Sudoeste 25 Sudoeste 0 -- -- 28
2019-06-02 11:00:00 22.7 17 Sudoeste 23 Sudoeste 0 -- -- 32
2019-06-02 10:00:00 20.2 13 Sudoeste 18 Sudoeste 0 -- -- 43
2019-06-02 09:00:00 18.4 9 Sudoeste 13 Sudoeste 0 -- -- 47
2019-06-02 08:00:00 14.8 5 Sudoeste 8 Sur 0 -- -- 56
2019-06-02 07:00:00 14 2 Sudeste 4 Sudeste 0 -- -- 60
2019-06-02 06:00:00 13.3 3 Nordeste 13 Sudoeste 0 -- -- 64
2019-06-02 05:00:00 15.5 8 Sudoeste 20 Sudoeste 0 -- -- 53
2019-06-02 04:00:00 17.4 9 Sudoeste 15 Sudoeste 0 -- -- 44
2019-06-02 03:00:00 19.1 10 Sudoeste 12 Sudoeste 0 -- -- 39
2019-06-02 02:00:00 18.8 8 Sudoeste 13 Sudoeste 0 -- -- 40
2019-06-02 01:00:00 20.1 10 Sudoeste 14 Noroeste 0 -- -- 37
2019-06-02 00:00:00 19.9 11 Oeste 20 Oeste 0 -- -- 38
2019-06-01 23:00:00 22.9 15 Oeste 23 Oeste 0 -- -- 30
2019-06-01 22:00:00 23.8 13 Noroeste 24 Oeste 0 -- -- 31
2019-06-01 21:00:00 26.9 13 Noroeste 29 Noroeste 0 -- -- 31
2019-06-01 20:00:00 29 15 Noroeste 28 Noroeste 0 -- -- 30
2019-06-01 19:00:00 30.4 10 Oeste 37 Sudoeste 0 -- -- 23
2019-06-01 18:00:00 30.2 14 Oeste 29 Oeste 0 -- -- 26
2019-06-01 17:00:00 30.3 14 Sudoeste 31 Oeste 0 -- -- 22
2019-06-01 16:00:00 29.9 13 Oeste 35 Oeste 0 -- -- 24
2019-06-01 15:00:00 29.3 18 Sudoeste 35 Sudoeste 0 -- -- 22
2019-06-01 14:00:00 29.4 9 Sudoeste 27 Sur 0 -- -- 24
2019-06-01 13:00:00 28.5 11 Sur 18 Sur 0 -- -- 28
2019-06-01 12:00:00 27.8 5 Este 13 Sudeste 0 -- -- 33
2019-06-01 11:00:00 26.3 5 Nordeste 9 Nordeste 0 -- -- 30
2019-06-01 10:00:00 24.6 5 Nordeste 8 Nordeste 0 -- -- 35
2019-06-01 09:00:00 22.4 4 Nordeste 9 Nordeste 0 -- -- 40
2019-06-01 08:00:00 18 6 Nordeste 14 Nordeste 0 -- -- 51
2019-06-01 07:00:00 13.4 13 Nordeste 14 Nordeste 0 -- -- 66
2019-06-01 06:00:00 13.7 10 Nordeste 11 Nordeste 0 -- -- 68
2019-06-01 05:00:00 13.3 3 Este 16 Nordeste 0 -- -- 70
2019-06-01 04:00:00 15.2 13 Norte 15 Nordeste 0 -- -- 62
2019-06-01 03:00:00 18.4 4 Oeste 8 Sudoeste 0 -- -- 46
2019-06-01 02:00:00 17.2 6 Oeste 10 Oeste 0 -- -- 50
2019-06-01 01:00:00 20.8 3 Sur 8 Sudeste 0 -- -- 38
2019-06-01 00:00:00 21.4 6 Norte 11 Nordeste 0 -- -- 39
2019-05-31 23:00:00 22 5 Noroeste 7 Nordeste 0 -- -- 39
2019-05-31 22:00:00 24.9 5 Sudoeste 10 Sudoeste 0 -- -- 31
2019-05-31 21:00:00 28.5 7 Sudoeste 13 Sudoeste 0 -- -- 25
2019-05-31 20:00:00 31.6 6 Norte 14 Norte 0 -- -- 19
2019-05-31 19:00:00 30.7 5 Oeste 14 Este 0 -- -- 20
2019-05-31 18:00:00 31.3 4 Nordeste 18 Norte 0 -- -- 20
2019-05-31 17:00:00 30.5 10 Norte 22 Norte 0 -- -- 21
2019-05-31 16:00:00 29.6 3 Sudoeste 18 Noroeste 0 -- -- 22
2019-05-31 15:00:00 28.6 9 Sudeste 18 Este 0 -- -- 27
2019-05-31 14:00:00 27.6 8 Sur 17 Nordeste 0 -- -- 27
2019-05-31 13:00:00 26.9 9 Este 24 Este 0 -- -- 29
2019-05-31 12:00:00 25.5 15 Este 24 Nordeste 0 -- -- 32
2019-05-31 11:00:00 23.4 17 Este 25 Este 0 -- -- 42
2019-05-31 10:00:00 21 16 Nordeste 22 Nordeste 0 -- -- 53
2019-05-31 09:00:00 18.7 14 Nordeste 21 Nordeste 0 -- -- 60
2019-05-31 08:00:00 15.2 13 Nordeste 23 Nordeste 0 -- -- 70
2019-05-31 07:00:00 13.3 19 Nordeste 28 Nordeste 0 -- -- 76
2019-05-31 06:00:00 13.1 18 Nordeste 22 Nordeste 0 -- -- 74
2019-05-31 05:00:00 13.6 18 Nordeste 23 Nordeste 0 -- -- 69
2019-05-31 04:00:00 14.2 18 Nordeste 21 Nordeste 0 -- -- 63
2019-05-31 03:00:00 14.1 14 Nordeste 15 Nordeste 0 -- -- 59
2019-05-31 02:00:00 15 10 Nordeste 14 Este 0 -- -- 55
2019-05-31 01:00:00 16.2 14 Nordeste 15 Este 0 -- -- 51
2019-05-31 00:00:00 18.8 15 Este 17 Este 0 -- -- 42
2019-05-30 23:00:00 19.4 14 Este 17 Este 0 -- -- 42
2019-05-30 22:00:00 22.3 7 Este 12 Nordeste 0 -- -- 37
2019-05-30 21:00:00 25.7 8 Este 19 Nordeste 0 -- -- 34
2019-05-30 20:00:00 27.2 15 Este 24 Este 0 -- -- 28
2019-05-30 19:00:00 27.9 15 Nordeste 25 Este 0 -- -- 25
2019-05-30 18:00:00 28.1 11 Nordeste 30 Nordeste 0 -- -- 26
2019-05-30 17:00:00 27.6 10 Nordeste 23 Este 0 -- -- 25
2019-05-30 16:00:00 26.4 12 Este 24 Nordeste 0 -- -- 29
2019-05-30 15:00:00 25.6 5 Este 24 Este 0 -- -- 34
2019-05-30 14:00:00 24.4 11 Este 28 Nordeste 0 -- -- 36
2019-05-30 13:00:00 22.5 15 Este 24 Este 0 -- -- 41
2019-05-30 12:00:00 20.9 13 Este 25 Este 0 -- -- 46
2019-05-30 11:00:00 19.6 13 Este 23 Este 0 -- -- 50
2019-05-30 10:00:00 17.5 14 Este 21 Nordeste 0 -- -- 54
2019-05-30 09:00:00 14.2 15 Nordeste 20 Nordeste 0 -- -- 68
2019-05-30 08:00:00 11.6 10 Nordeste 18 Nordeste 0 -- -- 77
2019-05-30 07:00:00 8.1 15 Nordeste 18 Nordeste 0 -- -- 88
2019-05-30 06:00:00 9.1 15 Nordeste 15 Nordeste 0 -- -- 84
2019-05-30 05:00:00 9.1 13 Norte 14 Norte 0 -- -- 84
2019-05-30 04:00:00 9.8 11 Nordeste 17 Nordeste 0 -- -- 80
2019-05-30 03:00:00 10.5 14 Nordeste 16 Nordeste 0 -- -- 77
2019-05-30 02:00:00 11.7 12 Nordeste 20 Nordeste 0 -- -- 72
2019-05-30 01:00:00 12.6 14 Nordeste 18 Nordeste 0 -- -- 68
2019-05-30 00:00:00 14.2 10 Este 17 Este 0 -- -- 58
2019-05-29 23:00:00 16.8 9 Sudeste 13 Este 0 -- -- 48
2019-05-29 22:00:00 18.4 8 Este 17 Nordeste 0 -- -- 47
2019-05-29 21:00:00 22 12 Este 22 Este 0 -- -- 38
2019-05-29 20:00:00 23.3 16 Este 28 Este 0 -- -- 34
2019-05-29 19:00:00 23.9 16 Este 30 Nordeste 0 -- -- 33
2019-05-29 18:00:00 23.6 18 Este 30 Este 0 -- -- 35
2019-05-29 17:00:00 23.6 15 Nordeste 27 Nordeste 0 -- -- 33
2019-05-29 16:00:00 22.1 18 Nordeste 31 Este 0 -- -- 37
2019-05-29 15:00:00 21.3 15 Este 44 Nordeste 0 -- -- 40
2019-05-29 14:00:00 19.6 15 Este 27 Este 0 -- -- 42
2019-05-29 13:00:00 18 17 Este 26 Este 0 -- -- 47
2019-05-29 12:00:00 15.7 13 Este 28 Este 0 -- -- 52
2019-05-29 11:00:00 14.3 13 Este 28 Nordeste 0 -- -- 57
2019-05-29 10:00:00 12.3 17 Este 26 Este 0 -- -- 63
2019-05-29 09:00:00 10.5 16 Este 23 Este 0 -- -- 70
2019-05-29 08:00:00 7.1 10 Nordeste 14 Nordeste 0 -- -- 82
2019-05-29 07:00:00 4.4 14 Nordeste 17 Nordeste 0 -- -- 91
2019-05-29 06:00:00 5 15 Nordeste 21 Este 0 -- -- 89
2019-05-29 05:00:00 5.8 13 Nordeste 22 Nordeste 0 -- -- 85
2019-05-29 04:00:00 7 15 Este 25 Nordeste 0 -- -- 80
2019-05-29 03:00:00 8.3 18 Este 34 Este 0 -- -- 74
2019-05-29 02:00:00 9.6 24 Este 34 Este 0 -- -- 66
2019-05-29 01:00:00 11.1 20 Nordeste 31 Nordeste 0 -- -- 59
2019-05-29 00:00:00 12.3 21 Nordeste 32 Nordeste 0 -- -- 53
2019-05-28 23:00:00 14.2 23 Nordeste 37 Nordeste 0 -- -- 49
2019-05-28 22:00:00 16.2 27 Nordeste 39 Nordeste 0 -- -- 42
2019-05-28 21:00:00 18.6 30 Nordeste 41 Nordeste 0 -- -- 37
2019-05-28 20:00:00 21.7 24 Nordeste 34 Nordeste 0 -- -- 33
2019-05-28 19:00:00 25.4 6 Norte 23 Nordeste 0 -- -- 27
2019-05-28 18:00:00 25.4 4 Norte 22 Norte 0 -- -- 30
2019-05-28 17:00:00 23.8 8 Oeste 32 Nordeste 0 -- -- 31
2019-05-28 16:00:00 22.8 7 Norte 19 Este 0 -- -- 33
2019-05-28 15:00:00 20.5 9 Sudeste 21 Este 0 -- -- 37
2019-05-28 14:00:00 19.2 6 Este 20 Sudeste 0 -- -- 35
2019-05-28 13:00:00 17.5 13 Este 23 Este 0 -- -- 45
2019-05-28 12:00:00 15.8 13 Este 25 Este 0 -- -- 51
2019-05-28 11:00:00 13.8 15 Nordeste 27 Nordeste 0 -- -- 60
2019-05-28 10:00:00 12 17 Nordeste 27 Nordeste 0 -- -- 67
2019-05-28 09:00:00 10 19 Este 27 Este 0 -- -- 76
2019-05-28 08:00:00 7.4 11 Nordeste 18 Nordeste 0 -- -- 86
2019-05-28 07:00:00 5.6 14 Nordeste 21 Este 0 -- -- 94
2019-05-28 06:00:00 6.5 16 Nordeste 24 Nordeste 0 -- -- 92
2019-05-28 05:00:00 7.6 17 Nordeste 27 Nordeste 0 -- -- 90
2019-05-28 04:00:00 8.5 19 Nordeste 31 Este 0 -- -- 89
2019-05-28 03:00:00 10 24 Este 36 Este 0 -- -- 84
2019-05-28 02:00:00 11.7 22 Nordeste 36 Nordeste 0 -- -- 58
2019-05-28 01:00:00 13.2 22 Nordeste 35 Nordeste 0 -- -- 55
2019-05-28 00:00:00 14.8 23 Nordeste 37 Nordeste 0 -- -- 48